createdAt,value
2022-09-04T00:04:44.236Z,17.15
2022-09-04T00:15:19.483Z,16.97
2022-09-04T00:26:13.023Z,16.78
2022-09-04T00:36:38.681Z,16.71
2022-09-04T00:47:39.310Z,16.68
2022-09-04T00:58:29.281Z,16.50
2022-09-04T01:09:01.271Z,16.46
2022-09-04T01:19:44.842Z,16.26
2022-09-04T01:30:17.377Z,16.24
2022-09-04T01:40:49.779Z,16.12
2022-09-04T01:51:23.360Z,16.12
2022-09-04T02:02:09.274Z,15.91
2022-09-04T02:12:42.832Z,15.83
2022-09-04T02:23:15.410Z,15.88
2022-09-04T02:33:39.342Z,15.77
2022-09-04T02:44:33.316Z,15.70
2022-09-04T02:55:11.658Z,15.71
2022-09-04T03:05:59.045Z,15.24
2022-09-04T03:16:40.246Z,15.31
2022-09-04T03:27:02.631Z,15.15
2022-09-04T03:37:59.319Z,15.09
2022-09-04T03:48:40.066Z,15.11
2022-09-04T03:59:08.299Z,14.93
2022-09-04T04:09:45.400Z,14.94
2022-09-04T04:20:22.101Z,14.92
2022-09-04T04:30:57.019Z,15.12
2022-09-04T04:41:30.886Z,14.86
2022-09-04T04:52:18.555Z,14.85
2022-09-04T05:03:01.352Z,14.67
2022-09-04T05:13:34.210Z,14.68
2022-09-04T05:24:05.421Z,14.52
2022-09-04T05:34:27.649Z,14.55
2022-09-04T05:45:27.713Z,14.54
2022-09-04T05:55:52.306Z,14.70
2022-09-04T06:06:45.907Z,14.90
2022-09-04T06:17:22.256Z,15.00
2022-09-04T06:28:19.579Z,15.33
2022-09-04T06:39:00.102Z,15.59
2022-09-04T06:49:36.424Z,15.97
2022-09-04T07:00:08.264Z,16.03
2022-09-04T07:10:58.687Z,16.25
2022-09-04T07:21:48.727Z,16.53
2022-09-04T07:32:15.475Z,16.72
2022-09-04T07:42:52.309Z,17.19
2022-09-04T07:53:25.695Z,17.26
2022-09-04T08:04:00.902Z,17.64
2022-09-04T08:14:30.076Z,17.95
2022-09-04T08:25:13.546Z,18.20
2022-09-04T08:35:41.190Z,18.43
2022-09-04T08:46:33.792Z,19.04
2022-09-04T08:57:17.073Z,19.24
2022-09-04T09:07:47.556Z,19.49
2022-09-04T09:18:32.043Z,19.83
2022-09-04T09:29:16.326Z,20.12
2022-09-04T09:40:02.332Z,20.28
2022-09-04T09:50:56.425Z,20.87
2022-09-04T10:01:38.719Z,20.91
2022-09-04T10:12:18.923Z,20.85
2022-09-04T10:22:59.547Z,21.51
2022-09-04T10:33:42.607Z,21.67
2022-09-04T10:44:24.321Z,22.04
2022-09-04T10:55:19.995Z,21.97
2022-09-04T11:05:44.485Z,22.34
2022-09-04T11:16:21.144Z,22.52
2022-09-04T11:26:47.693Z,22.85
2022-09-04T11:37:27.897Z,23.12
2022-09-04T11:48:08.214Z,23.30
2022-09-04T11:59:06.255Z,23.79
2022-09-04T12:09:48.003Z,23.98
2022-09-04T12:20:19.536Z,24.18
2022-09-04T12:30:59.343Z,23.99
2022-09-04T12:41:23.879Z,24.41
2022-09-04T12:51:52.379Z,24.28
2022-09-04T13:02:45.091Z,24.16
2022-09-04T13:13:51.966Z,24.63
2022-09-04T13:24:19.678Z,24.63
2022-09-04T13:35:09.399Z,25.05
2022-09-04T13:45:40.936Z,24.77
2022-09-04T13:56:19.570Z,24.97
2022-09-04T14:06:41.180Z,24.74
2022-09-04T14:17:07.159Z,25.23
2022-09-04T14:27:45.927Z,24.84
2022-09-04T14:38:32.622Z,24.45
2022-09-04T14:49:06.220Z,24.82
2022-09-04T14:59:41.306Z,25.17
2022-09-04T15:10:18.812Z,24.76
2022-09-04T15:20:47.947Z,25.27
2022-09-04T15:31:15.264Z,24.68
2022-09-04T15:41:43.195Z,25.14
2022-09-04T15:52:24.418Z,25.13
2022-09-04T16:03:12.746Z,25.36
2022-09-04T16:13:44.018Z,25.16
2022-09-04T16:24:09.216Z,25.56
2022-09-04T16:34:37.971Z,24.95
2022-09-04T16:45:20.227Z,24.64
2022-09-04T16:55:49.019Z,24.39
2022-09-04T17:06:33.762Z,24.56
2022-09-04T17:17:30.997Z,24.51
2022-09-04T17:29:11.307Z,24.26
2022-09-04T17:41:31.291Z,24.03
2022-09-04T17:49:55.552Z,23.73
2022-09-04T18:00:21.372Z,23.57
2022-09-04T18:10:46.058Z,23.28
2022-09-04T18:21:19.400Z,22.93
2022-09-04T18:37:13.235Z,22.73
2022-09-04T18:49:54.098Z,22.48
2022-09-04T18:54:01.502Z,22.25
2022-09-04T19:04:32.895Z,22.01
2022-09-04T19:14:55.830Z,22.08
2022-09-04T19:25:24.447Z,22.06
2022-09-04T19:35:58.215Z,21.84
2022-09-04T19:46:46.091Z,21.78
2022-09-04T19:57:32.310Z,21.63
2022-09-04T20:08:04.835Z,21.40
2022-09-04T20:18:37.490Z,21.25
2022-09-04T20:29:10.153Z,21.26
2022-09-04T20:39:41.773Z,20.99
2022-09-04T20:52:58.060Z,20.78
2022-09-04T21:03:20.092Z,20.71
2022-09-04T21:11:54.643Z,20.71
2022-09-04T21:22:34.821Z,20.54
2022-09-04T21:33:27.921Z,20.38
2022-09-04T21:44:04.731Z,20.54
2022-09-04T21:54:37.401Z,20.24
2022-09-04T22:05:25.955Z,20.22
2022-09-04T22:16:03.695Z,20.02
2022-09-04T22:26:34.449Z,19.92
2022-09-04T22:37:33.802Z,19.84
2022-09-04T22:48:10.494Z,19.67
2022-09-04T22:59:27.130Z,19.44
2022-09-04T23:13:59.558Z,19.50
2022-09-04T23:26:32.799Z,19.24
2022-09-04T23:32:07.108Z,19.22
2022-09-04T23:42:34.446Z,19.05
2022-09-04T23:53:16.640Z,19.03
